createdAt,value
2019-05-05T00:00:47.802Z,9.20
2019-05-05T00:02:31.838Z,9.20
2019-05-05T00:04:25.197Z,9.20
2019-05-05T00:06:05.279Z,9.10
2019-05-05T00:07:41.888Z,8.70
2019-05-05T00:09:39.423Z,8.60
2019-05-05T00:11:35.121Z,8.40
2019-05-05T00:13:26.963Z,8.20
2019-05-05T00:15:14.491Z,8.00
2019-05-05T00:16:58.201Z,8.00
2019-05-05T00:18:34.955Z,8.00
2019-05-05T00:20:11.860Z,7.90
2019-05-05T00:21:48.424Z,7.90
2019-05-05T00:23:25.197Z,7.70
2019-05-05T00:25:01.694Z,7.70
2019-05-05T00:26:39.249Z,7.70
2019-05-05T00:28:15.829Z,7.60
2019-05-05T00:29:54.700Z,7.60
2019-05-05T00:31:31.629Z,7.60
2019-05-05T00:33:08.037Z,7.60
2019-05-05T00:34:44.676Z,7.50
2019-05-05T00:36:21.434Z,7.50
2019-05-05T00:37:57.806Z,7.50
2019-05-05T00:39:34.569Z,7.40
2019-05-05T00:41:11.354Z,7.30
2019-05-05T00:42:47.794Z,7.30
2019-05-05T00:44:25.215Z,7.10
2019-05-05T00:46:06.761Z,7.10
2019-05-05T00:47:47.492Z,7.00
2019-05-05T00:49:25.042Z,6.90
2019-05-05T00:51:01.279Z,6.90
2019-05-05T00:52:37.753Z,6.90
2019-05-05T00:54:14.898Z,6.70
2019-05-05T00:55:50.726Z,6.60
2019-05-05T00:57:27.087Z,6.60
2019-05-05T00:59:05.618Z,6.60
2019-05-05T01:00:44.439Z,6.60
2019-05-05T01:02:25.047Z,6.50
2019-05-05T01:04:05.150Z,6.50
2019-05-05T01:05:44.783Z,6.50
2019-05-05T01:07:21.244Z,6.40
2019-05-05T01:08:57.922Z,6.40
2019-05-05T01:10:35.434Z,6.30
2019-05-05T01:12:12.077Z,6.30
2019-05-05T01:13:48.411Z,6.30
2019-05-05T01:15:25.500Z,6.30
2019-05-05T01:17:02.130Z,6.30
2019-05-05T01:18:38.462Z,6.30
2019-05-05T01:20:16.664Z,6.40
2019-05-05T01:21:54.392Z,6.40
2019-05-05T01:23:30.958Z,6.30
2019-05-05T01:25:08.786Z,6.10
2019-05-05T01:26:45.226Z,6.20
2019-05-05T01:28:21.739Z,6.20
2019-05-05T01:29:58.481Z,6.20
2019-05-05T01:31:35.160Z,6.20
2019-05-05T01:33:25.297Z,6.20
2019-05-05T01:35:01.964Z,6.10
2019-05-05T01:36:38.467Z,6.10
2019-05-05T01:38:29.280Z,6.10
2019-05-05T01:40:18.079Z,6.20
2019-05-05T01:41:56.158Z,6.20
2019-05-05T01:43:34.531Z,6.00
2019-05-05T01:45:11.092Z,6.00
2019-05-05T01:46:47.490Z,5.90
2019-05-05T01:48:24.963Z,6.00
2019-05-05T01:50:16.732Z,5.90
2019-05-05T01:51:39.663Z,5.90
2019-05-05T01:53:16.674Z,5.90
2019-05-05T01:54:54.786Z,5.80
2019-05-05T01:56:31.821Z,5.80
2019-05-05T01:58:08.323Z,5.80
2019-05-05T01:59:45.048Z,5.70
2019-05-05T02:01:21.492Z,5.70
2019-05-05T02:02:57.926Z,5.60
2019-05-05T02:04:34.466Z,5.50
2019-05-05T02:06:10.987Z,5.50
2019-05-05T02:07:48.096Z,5.50
2019-05-05T02:09:25.154Z,5.50
2019-05-05T02:11:01.817Z,5.40
2019-05-05T02:12:38.141Z,5.40
2019-05-05T02:14:15.589Z,5.30
2019-05-05T02:15:52.199Z,5.30
2019-05-05T02:17:28.627Z,5.20
2019-05-05T02:19:05.647Z,5.10
2019-05-05T02:20:58.594Z,5.20
2019-05-05T02:22:35.717Z,5.10
2019-05-05T02:24:14.356Z,5.10
2019-05-05T02:25:50.415Z,5.10
2019-05-05T02:27:26.983Z,5.10
2019-05-05T02:29:09.799Z,5.00
2019-05-05T02:30:46.691Z,5.00
2019-05-05T02:32:28.927Z,4.90
2019-05-05T02:34:05.598Z,4.90
2019-05-05T02:35:42.076Z,5.00
2019-05-05T02:37:18.996Z,4.90
2019-05-05T02:38:56.775Z,4.90
2019-05-05T02:40:35.152Z,4.90
2019-05-05T02:42:14.689Z,4.90
2019-05-05T02:43:52.196Z,5.00
2019-05-05T02:46:01.634Z,5.00
2019-05-05T02:47:46.657Z,5.00
2019-05-05T02:49:25.530Z,4.90
2019-05-05T02:51:16.068Z,4.80
2019-05-05T02:52:53.594Z,4.90
2019-05-05T02:54:33.876Z,4.90
2019-05-05T02:56:15.885Z,4.90
2019-05-05T02:57:54.688Z,4.80
2019-05-05T02:59:35.307Z,4.90
2019-05-05T03:01:30.043Z,4.90
2019-05-05T03:03:07.953Z,4.90
2019-05-05T03:04:46.465Z,4.70
2019-05-05T03:06:23.774Z,4.70
2019-05-05T03:08:01.106Z,4.70
2019-05-05T03:09:38.710Z,4.70
2019-05-05T03:11:17.140Z,4.70
2019-05-05T03:12:54.555Z,4.60
2019-05-05T03:14:34.343Z,4.60
2019-05-05T03:16:20.957Z,4.70
2019-05-05T03:17:57.348Z,4.70
2019-05-05T03:19:34.186Z,4.60
2019-05-05T03:21:10.652Z,4.70
2019-05-05T03:22:47.114Z,4.70
2019-05-05T03:24:23.828Z,4.60
2019-05-05T03:26:00.689Z,4.60
2019-05-05T03:27:37.294Z,4.60
2019-05-05T03:29:16.553Z,4.60
2019-05-05T03:30:55.765Z,4.60
2019-05-05T03:32:31.842Z,4.60
2019-05-05T03:34:08.627Z,4.50
2019-05-05T03:35:46.233Z,4.60
2019-05-05T03:37:24.819Z,4.60
2019-05-05T03:39:01.774Z,4.60
2019-05-05T03:40:40.030Z,4.60
2019-05-05T03:42:18.183Z,4.70
2019-05-05T03:44:00.465Z,4.60
2019-05-05T03:45:41.656Z,4.70
2019-05-05T03:47:18.656Z,4.60
2019-05-05T03:48:55.266Z,4.70
2019-05-05T03:50:33.992Z,4.70
2019-05-05T03:52:10.290Z,4.80
2019-05-05T03:53:46.694Z,4.80
2019-05-05T03:55:24.145Z,4.80
2019-05-05T03:57:10.018Z,4.80
2019-05-05T03:58:46.718Z,4.80
2019-05-05T04:00:54.915Z,4.60
2019-05-05T04:02:34.163Z,4.70
2019-05-05T04:04:21.542Z,4.80
2019-05-05T04:06:00.000Z,4.70
2019-05-05T04:07:36.806Z,4.70
2019-05-05T04:09:13.741Z,4.70
2019-05-05T04:10:50.700Z,4.80
2019-05-05T04:12:27.306Z,4.70
2019-05-05T04:14:04.602Z,4.80
2019-05-05T04:15:44.209Z,4.70
2019-05-05T04:17:27.905Z,4.60
2019-05-05T04:19:08.913Z,4.60
2019-05-05T04:20:46.517Z,4.70
2019-05-05T04:22:23.754Z,4.60
2019-05-05T04:24:00.308Z,4.60
2019-05-05T04:25:37.081Z,4.50
2019-05-05T04:27:14.614Z,4.60
2019-05-05T04:28:51.127Z,4.50
2019-05-05T04:30:27.673Z,4.50
2019-05-05T04:32:04.743Z,4.60
2019-05-05T04:33:41.098Z,4.60
2019-05-05T04:35:17.940Z,4.60
2019-05-05T04:36:54.715Z,4.60
2019-05-05T04:38:31.154Z,4.60
2019-05-05T04:40:07.879Z,4.60
2019-05-05T04:41:44.206Z,4.60
2019-05-05T04:43:20.615Z,4.60
2019-05-05T04:44:57.053Z,4.60
2019-05-05T04:46:33.888Z,4.50
2019-05-05T04:48:14.659Z,4.50
2019-05-05T04:49:56.504Z,4.50
2019-05-05T04:51:46.919Z,4.40
2019-05-05T04:53:17.117Z,4.40
2019-05-05T04:54:55.687Z,4.30
2019-05-05T04:56:34.329Z,4.40
2019-05-05T04:58:13.555Z,4.40
2019-05-05T04:59:51.355Z,4.30
2019-05-05T05:01:28.068Z,4.30
2019-05-05T05:03:08.991Z,4.30
2019-05-05T05:04:46.958Z,4.40
2019-05-05T05:06:24.941Z,4.40
2019-05-05T05:08:03.734Z,4.40
2019-05-05T05:09:40.486Z,4.30
2019-05-05T05:11:16.755Z,4.40
2019-05-05T05:12:53.984Z,4.40
2019-05-05T05:14:30.546Z,4.40
2019-05-05T05:16:07.263Z,4.50
2019-05-05T05:17:45.379Z,4.50
2019-05-05T05:19:24.061Z,4.50
2019-05-05T05:20:59.974Z,4.50
2019-05-05T05:22:36.590Z,4.50
2019-05-05T05:24:14.670Z,4.50
2019-05-05T05:25:51.110Z,4.40
2019-05-05T05:27:27.502Z,4.50
2019-05-05T05:29:04.635Z,4.50
2019-05-05T05:30:41.242Z,4.40
2019-05-05T05:32:17.755Z,4.30
2019-05-05T05:33:55.149Z,4.40
2019-05-05T05:35:33.474Z,4.30
2019-05-05T05:37:09.850Z,4.20
2019-05-05T05:38:47.839Z,4.20
2019-05-05T05:40:28.544Z,4.20
2019-05-05T05:42:04.820Z,4.20
2019-05-05T05:44:03.586Z,4.20
2019-05-05T05:45:56.951Z,4.20
2019-05-05T05:47:53.536Z,4.30
2019-05-05T05:49:34.648Z,4.30
2019-05-05T05:51:14.525Z,4.30
2019-05-05T05:52:50.868Z,4.30
2019-05-05T05:54:27.115Z,4.30
2019-05-05T05:56:04.344Z,4.30
2019-05-05T05:57:41.173Z,4.40
2019-05-05T05:59:18.044Z,4.30
2019-05-05T06:00:55.212Z,4.30
2019-05-05T06:02:33.482Z,4.30
2019-05-05T06:04:09.451Z,4.40
2019-05-05T06:05:45.912Z,4.30
2019-05-05T06:07:24.521Z,4.30
2019-05-05T06:09:00.891Z,4.30
2019-05-05T06:10:37.398Z,4.30
2019-05-05T06:12:14.149Z,4.40
2019-05-05T06:13:50.783Z,4.30
2019-05-05T06:15:27.201Z,4.40
2019-05-05T06:17:04.282Z,4.40
2019-05-05T06:18:40.984Z,4.50
2019-05-05T06:20:17.688Z,4.40
2019-05-05T06:21:54.371Z,4.50
2019-05-05T06:23:30.865Z,4.50
2019-05-05T06:25:08.274Z,4.40
2019-05-05T06:26:44.705Z,4.50
2019-05-05T06:28:21.110Z,4.40
2019-05-05T06:29:57.544Z,4.50
2019-05-05T06:31:34.282Z,4.40
2019-05-05T06:33:10.948Z,4.40
2019-05-05T06:34:47.166Z,4.40
2019-05-05T06:36:23.768Z,4.40
2019-05-05T06:38:00.199Z,4.40
2019-05-05T06:39:36.576Z,4.50
2019-05-05T06:41:17.647Z,4.50
2019-05-05T06:42:55.577Z,4.40
2019-05-05T06:44:33.914Z,4.40
2019-05-05T06:46:14.642Z,4.30
2019-05-05T06:47:51.088Z,4.30
2019-05-05T06:49:27.743Z,4.30
2019-05-05T06:51:04.327Z,4.20
2019-05-05T06:52:44.131Z,4.30
2019-05-05T06:54:18.522Z,4.30
2019-05-05T06:55:54.813Z,4.20
2019-05-05T06:57:31.181Z,4.20
2019-05-05T06:59:07.695Z,4.30
2019-05-05T07:00:44.238Z,4.20
2019-05-05T07:02:23.673Z,4.30
2019-05-05T07:03:59.820Z,4.30
2019-05-05T07:05:36.306Z,4.30
2019-05-05T07:07:14.590Z,4.30
2019-05-05T07:08:51.272Z,4.30
2019-05-05T07:10:27.612Z,4.40
2019-05-05T07:12:04.694Z,4.40
2019-05-05T07:13:41.243Z,4.50
2019-05-05T07:15:18.358Z,4.50
2019-05-05T07:16:54.792Z,4.60
2019-05-05T07:18:31.238Z,4.60
2019-05-05T07:20:08.046Z,4.70
2019-05-05T07:21:44.381Z,4.70
2019-05-05T07:23:20.739Z,4.60
2019-05-05T07:24:57.199Z,4.70
2019-05-05T07:26:34.131Z,4.80
2019-05-05T07:28:10.662Z,4.70
2019-05-05T07:29:47.086Z,4.90
2019-05-05T07:31:23.999Z,4.80
2019-05-05T07:33:00.505Z,5.00
2019-05-05T07:34:41.621Z,5.10
2019-05-05T07:36:36.563Z,5.20
2019-05-05T07:38:13.865Z,5.30
2019-05-05T07:39:50.369Z,5.30
2019-05-05T07:41:26.792Z,5.30
2019-05-05T07:43:04.512Z,5.40
2019-05-05T07:44:41.077Z,5.30
2019-05-05T07:46:17.407Z,5.30
2019-05-05T07:47:54.332Z,5.30
2019-05-05T07:49:30.923Z,5.50
2019-05-05T07:51:07.349Z,5.60
2019-05-05T07:52:43.951Z,5.60
2019-05-05T07:54:20.331Z,5.60
2019-05-05T07:55:56.943Z,5.60
2019-05-05T07:57:34.168Z,5.50
2019-05-05T07:59:10.707Z,5.50
2019-05-05T08:00:47.022Z,5.70
2019-05-05T08:02:23.735Z,5.70
2019-05-05T08:04:00.405Z,5.70
2019-05-05T08:05:36.760Z,5.60
2019-05-05T08:07:14.696Z,5.70
2019-05-05T08:08:51.238Z,5.50
2019-05-05T08:10:27.635Z,5.60
2019-05-05T08:12:04.389Z,5.70
2019-05-05T08:13:41.086Z,5.70
2019-05-05T08:15:19.423Z,5.60
2019-05-05T08:17:00.172Z,5.70
2019-05-05T08:18:54.925Z,5.80
2019-05-05T08:20:35.951Z,5.80
2019-05-05T08:22:14.161Z,5.70
2019-05-05T08:23:56.117Z,5.80
2019-05-05T08:25:40.481Z,5.80
2019-05-05T08:27:28.630Z,5.80
2019-05-05T08:29:23.930Z,5.70
2019-05-05T08:31:03.981Z,5.70
2019-05-05T08:32:43.649Z,5.70
2019-05-05T08:34:20.432Z,5.70
2019-05-05T08:35:56.928Z,5.70
2019-05-05T08:37:34.353Z,5.60
2019-05-05T08:39:11.011Z,5.70
2019-05-05T08:40:47.369Z,5.60
2019-05-05T08:42:24.665Z,5.60
2019-05-05T08:44:01.286Z,5.60
2019-05-05T08:45:37.798Z,5.60
2019-05-05T08:47:14.338Z,5.70
2019-05-05T08:48:50.830Z,5.60
2019-05-05T08:50:27.304Z,5.70
2019-05-05T08:52:04.203Z,5.60
2019-05-05T08:53:45.036Z,5.70
2019-05-05T08:55:19.313Z,5.70
2019-05-05T08:56:55.629Z,5.70
2019-05-05T08:58:34.270Z,5.80
2019-05-05T09:00:11.292Z,5.70
2019-05-05T09:01:47.655Z,5.80
2019-05-05T09:03:24.367Z,5.80
2019-05-05T09:05:00.833Z,5.80
2019-05-05T09:06:37.845Z,5.80
2019-05-05T09:08:14.419Z,5.90
2019-05-05T09:09:50.684Z,6.00
2019-05-05T09:11:27.178Z,6.00
2019-05-05T09:13:04.080Z,5.90
2019-05-05T09:14:40.433Z,6.00
2019-05-05T09:16:18.437Z,5.80
2019-05-05T09:19:25.287Z,6.00
2019-05-05T09:21:01.641Z,6.00
2019-05-05T09:22:38.073Z,6.00
2019-05-05T09:24:16.238Z,6.10
2019-05-05T09:26:05.979Z,6.10
2019-05-05T09:27:46.838Z,6.20
2019-05-05T09:29:36.786Z,6.20
2019-05-05T09:31:14.606Z,6.30
2019-05-05T09:32:51.333Z,6.40
2019-05-05T09:34:28.144Z,6.30
2019-05-05T09:36:05.047Z,6.40
2019-05-05T09:37:41.812Z,6.50
2019-05-05T09:39:20.437Z,6.50
2019-05-05T09:40:56.838Z,6.40
2019-05-05T09:42:34.210Z,6.40
2019-05-05T09:44:10.632Z,6.50
2019-05-05T09:45:47.151Z,6.50
2019-05-05T09:47:24.103Z,6.50
2019-05-05T09:49:00.432Z,6.50
2019-05-05T09:50:37.266Z,6.40
2019-05-05T09:52:14.113Z,6.50
2019-05-05T09:53:51.522Z,6.50
2019-05-05T09:55:28.043Z,6.60
2019-05-05T09:57:04.839Z,6.50
2019-05-05T09:58:41.407Z,6.70
2019-05-05T10:00:18.084Z,6.70
2019-05-05T10:01:54.525Z,6.60
2019-05-05T10:03:48.285Z,6.70
2019-05-05T10:05:41.799Z,6.90
2019-05-05T10:07:35.683Z,7.00
2019-05-05T10:09:29.165Z,7.10
2019-05-05T10:11:23.841Z,7.20
2019-05-05T10:13:17.514Z,7.20
2019-05-05T10:15:13.875Z,7.20
2019-05-05T10:17:07.159Z,7.30
2019-05-05T10:19:00.654Z,7.40
2019-05-05T10:20:54.242Z,7.40
2019-05-05T10:22:47.727Z,7.50
2019-05-05T10:24:44.332Z,7.40
2019-05-05T10:26:38.546Z,7.40
2019-05-05T10:28:34.054Z,7.40
2019-05-05T10:30:28.146Z,7.40
2019-05-05T10:32:21.847Z,7.30
2019-05-05T10:34:17.461Z,7.20
2019-05-05T10:36:11.052Z,7.20
2019-05-05T10:38:05.106Z,7.20
2019-05-05T10:39:58.516Z,7.20
2019-05-05T10:41:53.495Z,7.20
2019-05-05T10:43:47.258Z,7.30
2019-05-05T10:45:40.844Z,7.30
2019-05-05T10:47:34.383Z,7.30
2019-05-05T10:49:28.175Z,7.30
2019-05-05T10:51:23.834Z,7.20
2019-05-05T10:53:17.528Z,7.30
2019-05-05T10:55:11.571Z,7.20
2019-05-05T10:57:05.405Z,7.30
2019-05-05T10:58:58.882Z,7.30
2019-05-05T11:00:49.876Z,7.30
2019-05-05T11:02:26.236Z,7.40
2019-05-05T11:04:02.627Z,7.30
2019-05-05T11:05:39.667Z,7.40
2019-05-05T11:07:16.857Z,7.40
2019-05-05T11:08:54.016Z,7.40
2019-05-05T11:10:35.564Z,7.50
2019-05-05T11:12:13.718Z,7.60
2019-05-05T11:13:49.868Z,7.60
2019-05-05T11:15:26.257Z,7.60
2019-05-05T11:17:04.127Z,7.60
2019-05-05T11:18:41.004Z,7.60
2019-05-05T11:20:17.695Z,7.80
2019-05-05T11:21:54.357Z,7.80
2019-05-05T11:23:34.639Z,7.80
2019-05-05T11:25:11.034Z,7.90
2019-05-05T11:26:47.684Z,7.80
2019-05-05T11:28:24.010Z,7.70
2019-05-05T11:30:16.979Z,7.80
2019-05-05T11:31:53.999Z,7.80
2019-05-05T11:33:38.967Z,7.70
2019-05-05T11:35:15.843Z,7.70
2019-05-05T11:36:54.410Z,7.70
2019-05-05T11:38:30.888Z,7.70
2019-05-05T11:40:07.296Z,7.60
2019-05-05T11:41:44.009Z,7.70
2019-05-05T11:43:21.131Z,7.70
2019-05-05T11:44:57.464Z,7.60
2019-05-05T11:46:34.026Z,7.80
2019-05-05T11:48:10.615Z,7.80
2019-05-05T11:49:46.967Z,7.70
2019-05-05T11:51:25.023Z,7.70
2019-05-05T11:53:01.541Z,7.70
2019-05-05T11:54:38.075Z,7.80
2019-05-05T11:56:14.613Z,7.90
2019-05-05T11:57:50.967Z,7.90
2019-05-05T11:59:27.375Z,7.90
2019-05-05T12:01:04.013Z,8.00
2019-05-05T12:02:40.445Z,7.90
2019-05-05T12:04:17.137Z,7.90
2019-05-05T12:05:53.950Z,7.90
2019-05-05T12:07:30.134Z,8.00
2019-05-05T12:09:10.975Z,8.00
2019-05-05T12:10:49.024Z,8.10
2019-05-05T12:12:25.279Z,8.10
2019-05-05T12:14:03.851Z,8.10
2019-05-05T12:15:42.132Z,8.20
2019-05-05T12:17:20.201Z,8.20
2019-05-05T12:18:56.614Z,8.20
2019-05-05T12:20:40.586Z,8.10
2019-05-05T12:22:16.887Z,8.00
2019-05-05T12:23:54.574Z,8.20
2019-05-05T12:25:49.409Z,8.10
2019-05-05T12:27:27.468Z,8.10
2019-05-05T12:29:05.606Z,8.00
2019-05-05T12:30:41.882Z,8.10
2019-05-05T12:32:19.237Z,8.10
2019-05-05T12:33:55.698Z,8.20
2019-05-05T12:35:33.929Z,8.20
2019-05-05T12:37:10.274Z,8.30
2019-05-05T12:38:46.640Z,8.20
2019-05-05T12:40:24.614Z,8.20
2019-05-05T12:42:00.948Z,8.30
2019-05-05T12:43:37.455Z,8.30
2019-05-05T12:45:16.290Z,8.40
2019-05-05T12:47:03.872Z,8.40
2019-05-05T12:48:43.788Z,8.40
2019-05-05T12:50:20.421Z,8.50
2019-05-05T12:51:56.693Z,8.50
2019-05-05T12:53:33.120Z,8.60
2019-05-05T12:55:09.519Z,8.60
2019-05-05T12:56:45.886Z,8.70
2019-05-05T12:58:22.243Z,8.70
2019-05-05T12:59:58.871Z,8.80
2019-05-05T13:01:37.002Z,8.80
2019-05-05T13:03:13.584Z,8.70
2019-05-05T13:04:49.989Z,8.80
2019-05-05T13:06:26.273Z,8.80
2019-05-05T13:08:03.896Z,8.80
2019-05-05T13:09:41.457Z,8.90
2019-05-05T13:11:18.025Z,8.90
2019-05-05T13:12:54.571Z,8.80
2019-05-05T13:14:30.935Z,9.00
2019-05-05T13:16:07.372Z,9.00
2019-05-05T13:17:43.864Z,9.00
2019-05-05T13:19:24.188Z,9.00
2019-05-05T13:20:59.968Z,9.10
2019-05-05T13:22:38.049Z,9.20
2019-05-05T13:24:17.221Z,9.30
2019-05-05T13:26:05.660Z,9.30
2019-05-05T13:27:45.775Z,9.30
2019-05-05T13:29:24.464Z,9.30
2019-05-05T13:31:00.116Z,9.20
2019-05-05T13:32:37.074Z,9.30
2019-05-05T13:34:13.764Z,9.40
2019-05-05T13:35:53.676Z,9.40
2019-05-05T13:37:29.853Z,9.50
2019-05-05T13:39:09.088Z,9.40
2019-05-05T13:40:45.508Z,9.40
2019-05-05T13:42:24.197Z,9.40
2019-05-05T13:44:01.705Z,9.50
2019-05-05T13:45:45.937Z,9.50
2019-05-05T13:47:23.836Z,9.60
2019-05-05T13:49:17.337Z,9.70
2019-05-05T13:50:55.397Z,9.80
2019-05-05T13:52:33.614Z,9.80
2019-05-05T13:54:09.880Z,9.80
2019-05-05T13:55:46.470Z,9.90
2019-05-05T13:57:24.570Z,9.90
2019-05-05T13:59:00.985Z,9.90
2019-05-05T14:00:37.863Z,9.90
2019-05-05T14:02:14.213Z,9.80
2019-05-05T14:03:50.675Z,9.80
2019-05-05T14:05:27.170Z,9.80
2019-05-05T14:07:04.133Z,9.90
2019-05-05T14:08:40.712Z,9.80
2019-05-05T14:10:19.831Z,9.70
2019-05-05T14:11:56.365Z,9.60
2019-05-05T14:13:34.205Z,9.60
2019-05-05T14:15:18.247Z,9.60
2019-05-05T14:16:54.648Z,9.60
2019-05-05T14:18:30.965Z,9.50
2019-05-05T14:20:11.919Z,9.50
2019-05-05T14:21:46.202Z,9.60
2019-05-05T14:23:24.044Z,9.50
2019-05-05T14:25:04.239Z,9.50
2019-05-05T14:26:40.264Z,9.50
2019-05-05T14:28:18.224Z,9.40
2019-05-05T14:30:04.075Z,9.40
2019-05-05T14:31:44.307Z,9.30
2019-05-05T14:33:25.293Z,9.30
2019-05-05T14:35:09.279Z,9.40
2019-05-05T14:36:50.321Z,9.30
2019-05-05T14:38:44.430Z,9.30
2019-05-05T14:40:20.979Z,9.20
2019-05-05T14:41:57.412Z,9.20
2019-05-05T14:43:34.516Z,9.10
2019-05-05T14:45:15.275Z,9.10
2019-05-05T14:46:51.312Z,9.10
2019-05-05T14:48:27.742Z,9.10
2019-05-05T14:50:04.803Z,9.10
2019-05-05T14:51:41.267Z,9.10
2019-05-05T14:53:17.544Z,9.20
2019-05-05T14:54:54.576Z,9.10
2019-05-05T14:56:36.517Z,9.10
2019-05-05T14:58:08.883Z,9.20
2019-05-05T14:59:45.343Z,9.10
2019-05-05T15:01:21.863Z,9.10
2019-05-05T15:02:59.557Z,9.10
2019-05-05T15:04:37.582Z,9.20
2019-05-05T15:06:17.895Z,9.00
2019-05-05T15:07:55.488Z,9.10
2019-05-05T15:09:39.456Z,9.10
2019-05-05T15:11:33.873Z,9.10
2019-05-05T15:13:10.718Z,9.10
2019-05-05T15:14:47.095Z,9.10
2019-05-05T15:16:24.546Z,9.10
2019-05-05T15:18:00.835Z,9.10
2019-05-05T15:19:37.256Z,9.20
2019-05-05T15:21:13.713Z,9.20
2019-05-05T15:22:50.250Z,9.20
2019-05-05T15:24:26.556Z,9.30
2019-05-05T15:26:04.493Z,9.30
2019-05-05T15:27:40.922Z,9.30
2019-05-05T15:29:17.360Z,9.20
2019-05-05T15:30:54.541Z,9.20
2019-05-05T15:32:30.968Z,9.10
2019-05-05T15:34:07.492Z,9.20
2019-05-05T15:35:46.485Z,9.20
2019-05-05T15:37:23.740Z,9.20
2019-05-05T15:39:00.191Z,9.10
2019-05-05T15:40:37.135Z,9.20
2019-05-05T15:42:13.623Z,9.20
2019-05-05T15:43:49.998Z,9.30
2019-05-05T15:45:26.424Z,9.30
2019-05-05T15:47:02.755Z,9.30
2019-05-05T15:48:39.154Z,9.40
2019-05-05T15:50:15.950Z,9.40
2019-05-05T15:51:53.976Z,9.40
2019-05-05T15:53:31.924Z,9.40
2019-05-05T15:55:09.809Z,9.50
2019-05-05T15:56:46.287Z,9.40
2019-05-05T15:58:23.626Z,9.40
2019-05-05T16:00:00.466Z,9.40
2019-05-05T16:01:36.789Z,9.40
2019-05-05T16:03:13.621Z,9.40
2019-05-05T16:04:50.032Z,9.40
2019-05-05T16:06:26.542Z,9.40
2019-05-05T16:08:04.514Z,9.40
2019-05-05T16:09:41.196Z,9.40
2019-05-05T16:11:17.621Z,9.40
2019-05-05T16:12:54.010Z,9.40
2019-05-05T16:14:31.757Z,9.40
2019-05-05T16:16:09.861Z,9.30
2019-05-05T16:17:47.791Z,9.30
2019-05-05T16:19:27.951Z,9.30
2019-05-05T16:21:05.477Z,9.30
2019-05-05T16:22:49.525Z,9.30
2019-05-05T16:24:30.487Z,9.30
2019-05-05T16:26:06.905Z,9.30
2019-05-05T16:27:44.832Z,9.40
2019-05-05T16:29:23.661Z,9.30
2019-05-05T16:30:59.939Z,9.30
2019-05-05T16:32:36.444Z,9.30
2019-05-05T16:34:14.267Z,9.30
2019-05-05T16:35:50.782Z,9.30
2019-05-05T16:37:27.279Z,9.20
2019-05-05T16:39:04.445Z,9.20
2019-05-05T16:40:40.812Z,9.20
2019-05-05T16:42:17.175Z,9.20
2019-05-05T16:43:53.912Z,9.20
2019-05-05T16:45:30.396Z,9.20
2019-05-05T16:47:06.718Z,9.20
2019-05-05T16:48:43.954Z,9.10
2019-05-05T16:50:20.904Z,9.20
2019-05-05T16:52:00.802Z,9.20
2019-05-05T16:53:38.028Z,9.00
2019-05-05T16:55:28.384Z,9.00
2019-05-05T16:57:05.786Z,9.10
2019-05-05T16:58:42.421Z,9.10
2019-05-05T17:00:21.566Z,8.90
2019-05-05T17:01:57.507Z,8.90
2019-05-05T17:03:34.147Z,8.90
2019-05-05T17:05:11.078Z,8.90
2019-05-05T17:06:47.345Z,8.90
2019-05-05T17:08:24.442Z,8.80
2019-05-05T17:10:00.806Z,8.90
2019-05-05T17:11:37.270Z,8.80
2019-05-05T17:13:15.447Z,8.90
2019-05-05T17:15:06.611Z,8.80
2019-05-05T17:16:44.676Z,8.90
2019-05-05T17:18:35.216Z,8.90
2019-05-05T17:20:10.781Z,8.80
2019-05-05T17:22:05.093Z,8.70
2019-05-05T17:23:43.345Z,8.70
2019-05-05T17:25:20.793Z,8.80
2019-05-05T17:27:00.898Z,8.70
2019-05-05T17:28:37.315Z,8.70
2019-05-05T17:30:14.955Z,8.70
2019-05-05T17:31:51.366Z,8.60
2019-05-05T17:33:27.712Z,8.60
2019-05-05T17:35:04.109Z,8.60
2019-05-05T17:36:40.511Z,8.60
2019-05-05T17:38:17.349Z,8.40
2019-05-05T17:39:55.825Z,8.40
2019-05-05T17:41:44.475Z,8.40
2019-05-05T17:43:41.177Z,8.40
2019-05-05T17:45:35.894Z,8.40
2019-05-05T17:47:19.935Z,8.40
2019-05-05T17:49:00.664Z,8.40
2019-05-05T17:50:56.202Z,8.40
2019-05-05T17:52:35.312Z,8.30
2019-05-05T17:54:16.138Z,8.30
2019-05-05T17:55:54.259Z,8.30
2019-05-05T17:57:30.687Z,8.30
2019-05-05T17:59:07.039Z,8.30
2019-05-05T18:00:51.060Z,8.20
2019-05-05T18:02:27.470Z,8.20
2019-05-05T18:04:04.230Z,8.20
2019-05-05T18:05:51.576Z,8.20
2019-05-05T18:07:34.470Z,8.10
2019-05-05T18:09:14.097Z,8.10
2019-05-05T18:10:50.630Z,8.10
2019-05-05T18:12:38.824Z,8.00
2019-05-05T18:14:24.146Z,8.00
2019-05-05T18:16:04.437Z,8.10
2019-05-05T18:17:40.563Z,8.10
2019-05-05T18:19:17.015Z,8.00
2019-05-05T18:20:54.498Z,8.00
2019-05-05T18:22:30.857Z,8.00
2019-05-05T18:24:09.320Z,8.00
2019-05-05T18:25:46.106Z,8.00
2019-05-05T18:27:23.673Z,8.00
2019-05-05T18:29:00.431Z,7.90
2019-05-05T18:30:36.868Z,7.90
2019-05-05T18:32:13.896Z,7.90
2019-05-05T18:33:50.389Z,7.90
2019-05-05T18:35:46.084Z,7.90
2019-05-05T18:37:24.172Z,7.80
2019-05-05T18:39:00.661Z,7.80
2019-05-05T18:40:37.297Z,7.90
2019-05-05T18:42:17.790Z,7.80
2019-05-05T18:43:58.351Z,7.80
2019-05-05T18:45:35.540Z,7.80
2019-05-05T18:47:17.540Z,7.80
2019-05-05T18:48:51.708Z,7.80
2019-05-05T18:50:28.053Z,7.80
2019-05-05T18:52:04.639Z,7.70
2019-05-05T18:53:41.095Z,7.80
2019-05-05T18:55:17.439Z,7.70
2019-05-05T18:56:53.860Z,7.70
2019-05-05T18:58:31.085Z,7.70
2019-05-05T19:00:10.121Z,7.70
2019-05-05T19:01:50.718Z,7.60
2019-05-05T19:03:33.679Z,7.60
2019-05-05T19:05:19.429Z,7.70
2019-05-05T19:07:00.162Z,7.70
2019-05-05T19:08:51.892Z,7.70
2019-05-05T19:10:19.461Z,7.60
2019-05-05T19:11:55.882Z,7.60
2019-05-05T19:13:34.057Z,7.60
2019-05-05T19:15:11.049Z,7.70
2019-05-05T19:16:47.479Z,7.60
2019-05-05T19:18:24.491Z,7.60
2019-05-05T19:20:04.153Z,7.60
2019-05-05T19:21:43.629Z,7.60
2019-05-05T19:23:20.120Z,7.60
2019-05-05T19:24:58.188Z,7.60
2019-05-05T19:26:34.701Z,7.60
2019-05-05T19:28:11.271Z,7.50
2019-05-05T19:29:47.909Z,7.60
2019-05-05T19:31:24.731Z,7.60
2019-05-05T19:33:01.199Z,7.50
2019-05-05T19:34:37.453Z,7.60
2019-05-05T19:36:13.984Z,7.50
2019-05-05T19:37:50.409Z,7.50
2019-05-05T19:39:26.771Z,7.50
2019-05-05T19:41:03.967Z,7.50
2019-05-05T19:42:40.550Z,7.50
2019-05-05T19:44:16.975Z,7.50
2019-05-05T19:45:55.244Z,7.40
2019-05-05T19:47:31.584Z,7.40
2019-05-05T19:49:14.827Z,7.40
2019-05-05T19:50:54.173Z,7.40
2019-05-05T19:52:30.647Z,7.50
2019-05-05T19:54:07.079Z,7.50
2019-05-05T19:55:43.741Z,7.40
2019-05-05T19:57:20.164Z,7.40
2019-05-05T19:59:01.409Z,7.40
2019-05-05T20:00:38.185Z,7.40
2019-05-05T20:02:13.061Z,7.40
2019-05-05T20:03:49.487Z,7.40
2019-05-05T20:05:25.831Z,7.40
2019-05-05T20:07:04.432Z,7.40
2019-05-05T20:08:41.756Z,7.40
2019-05-05T20:10:18.620Z,7.40
2019-05-05T20:11:54.949Z,7.40
2019-05-05T20:13:31.400Z,7.30
2019-05-05T20:15:10.154Z,7.40
2019-05-05T20:16:48.352Z,7.30
2019-05-05T20:18:24.967Z,7.30
2019-05-05T20:20:00.748Z,7.30
2019-05-05T20:21:37.080Z,7.30
2019-05-05T20:23:13.737Z,7.30
2019-05-05T20:24:51.270Z,7.30
2019-05-05T20:26:28.121Z,7.30
2019-05-05T20:28:04.437Z,7.30
2019-05-05T20:29:40.840Z,7.20
2019-05-05T20:31:17.266Z,7.20
2019-05-05T20:32:58.305Z,7.20
2019-05-05T20:34:43.543Z,7.20
2019-05-05T20:36:24.520Z,7.20
2019-05-05T20:38:04.738Z,7.30
2019-05-05T20:39:43.720Z,7.20
2019-05-05T20:41:20.981Z,7.20
2019-05-05T20:42:57.272Z,7.10
2019-05-05T20:44:34.241Z,7.10
2019-05-05T20:46:12.243Z,7.20
2019-05-05T20:47:48.501Z,7.20
2019-05-05T20:49:25.866Z,7.20
2019-05-05T20:51:02.314Z,7.10
2019-05-05T20:52:38.601Z,7.20
2019-05-05T20:54:14.891Z,7.10
2019-05-05T20:55:51.275Z,7.20
2019-05-05T20:57:27.581Z,7.20
2019-05-05T20:59:04.781Z,7.20
2019-05-05T21:00:41.044Z,7.20
2019-05-05T21:02:17.535Z,7.20
2019-05-05T21:03:54.069Z,7.20
2019-05-05T21:05:30.402Z,7.20
2019-05-05T21:07:06.739Z,7.20
2019-05-05T21:08:43.992Z,7.10
2019-05-05T21:10:20.848Z,7.10
2019-05-05T21:11:57.263Z,7.10
2019-05-05T21:13:34.372Z,7.10
2019-05-05T21:15:13.073Z,7.10
2019-05-05T21:16:49.246Z,7.00
2019-05-05T21:18:25.704Z,7.00
2019-05-05T21:20:04.196Z,7.00
2019-05-05T21:21:42.158Z,7.00
2019-05-05T21:23:20.314Z,6.90
2019-05-05T21:24:57.839Z,6.90
2019-05-05T21:26:53.992Z,6.90
2019-05-05T21:28:30.421Z,6.90
2019-05-05T21:30:08.146Z,6.90
2019-05-05T21:31:44.620Z,6.90
2019-05-05T21:33:20.954Z,6.90
2019-05-05T21:34:57.291Z,6.90
2019-05-05T21:36:33.720Z,6.90
2019-05-05T21:38:09.975Z,6.80
2019-05-05T21:39:46.332Z,6.80
2019-05-05T21:41:24.470Z,6.80
2019-05-05T21:43:01.111Z,6.80
2019-05-05T21:44:37.637Z,6.80
2019-05-05T21:46:14.028Z,6.90
2019-05-05T21:47:51.454Z,6.90
2019-05-05T21:49:27.848Z,6.80
2019-05-05T21:51:08.701Z,6.90
2019-05-05T21:52:46.707Z,6.80
2019-05-05T21:54:27.505Z,6.80
2019-05-05T21:56:13.780Z,6.80
2019-05-05T21:58:04.362Z,6.80
2019-05-05T21:59:54.440Z,6.70